Time;durP1;ratioP1;P1;durP2;ratioP2;P2;SDS_P1;SDS_P2;PMS_P1;PMS_P2;Temp;Humidity;BMP_temperature;BMP_pressure;BME280_temperature;BME280_humidity;BME280_pressure;Samples;Min_cycle;Max_cycle;Signal;HPM_P1;HPM_P2
2024/03/20 00:00:05;;;;;;;4.68;3.22;;;;;;;;;;2064510;28;20038;-65
2024/03/20 00:01:24;;;;;;;5.03;3.30;;;;;;;;;;2064148;28;20023;-65
2024/03/20 00:02:43;;;;;;;3.75;2.65;;;;;;;;;;2063643;28;20027;-65
2024/03/20 00:04:04;;;;;;;3.05;2.85;;;;;;;;;;2063930;28;20034;-65
2024/03/20 00:05:23;;;;;;;3.20;3.00;;;;;;;;;;2064648;28;20427;-65
2024/03/20 00:06:42;;;;;;;4.32;3.10;;;;;;;;;;2097757;28;20032;-65
2024/03/20 00:08:01;;;;;;;4.60;2.70;;;;;;;;;;2097105;28;20052;-66
2024/03/20 00:09:20;;;;;;;4.03;3.25;;;;;;;;;;2098105;28;20056;-64
2024/03/20 00:10:39;;;;;;;3.88;3.22;;;;;;;;;;2097880;28;20067;-69
2024/03/20 00:11:58;;;;;;;5.05;3.50;;;;;;;;;;2098326;28;20029;-65
2024/03/20 00:13:17;;;;;;;4.03;3.50;;;;;;;;;;2098249;28;20029;-68
2024/03/20 00:14:36;;;;;;;4.72;3.60;;;;;;;;;;2093948;28;20481;-65
2024/03/20 00:15:55;;;;;;;3.10;2.83;;;;;;;;;;2101337;28;20111;-65
2024/03/20 00:17:14;;;;;;;4.32;3.20;;;;;;;;;;2101632;28;20119;-65
2024/03/20 00:18:33;;;;;;;4.13;3.15;;;;;;;;;;2098245;28;20029;-65
2024/03/20 00:19:54;;;;;;;4.80;3.00;;;;;;;;;;2093395;28;20028;-65
2024/03/20 00:21:13;;;;;;;7.80;3.40;;;;;;;;;;2100766;28;20028;-65
2024/03/20 00:22:33;;;;;;;9.38;3.25;;;;;;;;;;2101010;28;20025;-65
2024/03/20 00:23:52;;;;;;;5.03;3.55;;;;;;;;;;2098610;28;20033;-65
2024/03/20 00:25:11;;;;;;;7.82;3.40;;;;;;;;;;2098470;28;20021;-65
2024/03/20 00:26:30;;;;;;;6.97;3.63;;;;;;;;;;2097612;28;20038;-65
2024/03/20 00:27:48;;;;;;;4.47;3.25;;;;;;;;;;2098310;28;20112;-65
2024/03/20 00:29:08;;;;;;;3.50;2.85;;;;;;;;;;2098234;28;20021;-65
2024/03/20 00:30:27;;;;;;;3.70;3.20;;;;;;;;;;2098729;28;20029;-65
2024/03/20 00:31:46;;;;;;;3.78;3.45;;;;;;;;;;2097794;28;20021;-65
2024/03/20 00:33:05;;;;;;;3.83;3.35;;;;;;;;;;2098031;28;20028;-65
2024/03/20 00:34:25;;;;;;;3.30;3.00;;;;;;;;;;2097577;28;20040;-65
2024/03/20 00:35:44;;;;;;;3.45;3.15;;;;;;;;;;2097867;28;20389;-65
2024/03/20 00:37:03;;;;;;;4.35;3.05;;;;;;;;;;2098872;28;20563;-65
2024/03/20 00:38:22;;;;;;;3.88;3.53;;;;;;;;;;2098213;28;20033;-65
2024/03/20 00:39:41;;;;;;;6.80;3.35;;;;;;;;;;2097933;28;20028;-65
2024/03/20 00:41:00;;;;;;;3.70;2.95;;;;;;;;;;2098366;28;20033;-65
2024/03/20 00:42:20;;;;;;;5.82;3.33;;;;;;;;;;2104614;28;20028;-65
2024/03/20 00:43:39;;;;;;;5.00;3.30;;;;;;;;;;2100966;28;20020;-65
2024/03/20 00:44:58;;;;;;;3.35;3.05;;;;;;;;;;2098226;28;20502;-65
2024/03/20 00:46:17;;;;;;;6.95;3.85;;;;;;;;;;2097608;28;20473;-65
2024/03/20 00:47:36;;;;;;;5.88;3.60;;;;;;;;;;2097376;28;20107;-65
2024/03/20 00:48:54;;;;;;;5.63;3.88;;;;;;;;;;2097521;28;20032;-65
2024/03/20 00:50:13;;;;;;;3.63;3.33;;;;;;;;;;2097720;28;20040;-65
2024/03/20 00:51:32;;;;;;;4.55;3.72;;;;;;;;;;2098286;28;20040;-65
2024/03/20 00:52:51;;;;;;;7.13;3.63;;;;;;;;;;2098250;28;20111;-65
2024/03/20 00:54:10;;;;;;;4.68;3.33;;;;;;;;;;2097605;28;20033;-66
2024/03/20 00:55:29;;;;;;;4.45;3.40;;;;;;;;;;2097869;28;20490;-65
2024/03/20 00:56:48;;;;;;;3.92;3.35;;;;;;;;;;2098479;28;20044;-65
2024/03/20 00:58:10;;;;;;;5.03;3.20;;;;;;;;;;2098358;28;20024;-65
2024/03/20 00:59:29;;;;;;;5.37;3.23;;;;;;;;;;2097649;28;20131;-66
2024/03/20 01:00:49;;;;;;;4.57;3.40;;;;;;;;;;2097359;28;20230;-65
2024/03/20 01:02:08;;;;;;;5.50;3.67;;;;;;;;;;2097537;28;20425;-68
2024/03/20 01:03:27;;;;;;;4.25;3.42;;;;;;;;;;2098202;28;20029;-65
2024/03/20 01:04:46;;;;;;;4.15;3.33;;;;;;;;;;2097660;28;20478;-65
2024/03/20 01:06:05;;;;;;;3.85;3.35;;;;;;;;;;2096406;28;20028;-65
2024/03/20 01:07:24;;;;;;;4.28;3.65;;;;;;;;;;2088332;28;20104;-65
2024/03/20 01:08:43;;;;;;;5.40;3.38;;;;;;;;;;2064736;28;20050;-65
2024/03/20 01:10:03;;;;;;;3.60;3.17;;;;;;;;;;2064491;28;20092;-65
2024/03/20 01:11:22;;;;;;;3.90;3.60;;;;;;;;;;2064354;28;20075;-65
2024/03/20 01:12:41;;;;;;;5.80;3.67;;;;;;;;;;2064182;28;20406;-65
2024/03/20 01:14:00;;;;;;;3.85;3.47;;;;;;;;;;2096176;28;20119;-65
2024/03/20 01:15:19;;;;;;;5.72;3.30;;;;;;;;;;2078241;28;20495;-65
2024/03/20 01:16:38;;;;;;;6.43;3.72;;;;;;;;;;2064075;28;20038;-64
2024/03/20 01:17:57;;;;;;;5.97;3.53;;;;;;;;;;2063594;28;20030;-65
2024/03/20 01:19:16;;;;;;;4.85;3.83;;;;;;;;;;2063603;28;20030;-65
2024/03/20 01:20:35;;;;;;;3.65;3.35;;;;;;;;;;2064028;28;20956;-65
2024/03/20 01:21:54;;;;;;;5.72;3.55;;;;;;;;;;2064519;28;20080;-65
2024/03/20 01:23:13;;;;;;;7.57;3.78;;;;;;;;;;2063748;28;20030;-65
2024/03/20 01:24:32;;;;;;;4.30;3.63;;;;;;;;;;2063506;28;20433;-65
2024/03/20 01:25:51;;;;;;;3.92;3.63;;;;;;;;;;2063933;28;20042;-65
2024/03/20 01:27:10;;;;;;;7.47;3.83;;;;;;;;;;2064482;28;20035;-65
2024/03/20 01:28:29;;;;;;;6.40;4.10;;;;;;;;;;2063950;28;20023;-65
2024/03/20 01:29:48;;;;;;;6.10;3.65;;;;;;;;;;2062819;28;20622;-65
2024/03/20 01:31:07;;;;;;;8.25;3.40;;;;;;;;;;2064346;28;20034;-65
2024/03/20 01:32:26;;;;;;;4.90;3.95;;;;;;;;;;2065897;28;20035;-65
2024/03/20 01:33:45;;;;;;;8.27;3.90;;;;;;;;;;2064146;28;20034;-65
2024/03/20 01:35:04;;;;;;;6.47;3.60;;;;;;;;;;2064142;28;20492;-65
2024/03/20 01:36:23;;;;;;;4.97;3.55;;;;;;;;;;2063534;28;20488;-65
2024/03/20 01:37:42;;;;;;;5.25;3.58;;;;;;;;;;2063557;28;20495;-65
2024/03/20 01:39:02;;;;;;;4.15;3.75;;;;;;;;;;2064644;28;20034;-65
2024/03/20 01:40:21;;;;;;;7.22;4.18;;;;;;;;;;2062911;28;20511;-65
2024/03/20 01:41:42;;;;;;;7.93;4.00;;;;;;;;;;2063552;28;20034;-65
2024/03/20 01:43:01;;;;;;;7.47;3.72;;;;;;;;;;2063481;28;20030;-65
2024/03/20 01:44:20;;;;;;;5.18;3.58;;;;;;;;;;2063191;28;20434;-65
2024/03/20 01:45:39;;;;;;;7.07;3.90;;;;;;;;;;2063238;28;20026;-65
2024/03/20 01:46:58;;;;;;;5.78;3.83;;;;;;;;;;2063160;28;20503;-65
2024/03/20 01:48:17;;;;;;;5.85;3.72;;;;;;;;;;2063949;28;20022;-65
2024/03/20 01:49:36;;;;;;;4.72;3.90;;;;;;;;;;2064541;28;20489;-65
2024/03/20 01:50:54;;;;;;;5.57;3.85;;;;;;;;;;2063300;28;20153;-66
2024/03/20 01:52:13;;;;;;;11.07;4.38;;;;;;;;;;2063449;28;20030;-65
2024/03/20 01:53:32;;;;;;;6.13;3.90;;;;;;;;;;2096276;28;20486;-66
2024/03/20 01:54:51;;;;;;;6.35;4.28;;;;;;;;;;2076059;28;20062;-65
2024/03/20 01:56:11;;;;;;;5.82;3.85;;;;;;;;;;2063120;28;20066;-65
2024/03/20 01:57:29;;;;;;;4.20;3.80;;;;;;;;;;2063255;28;20498;-65
2024/03/20 01:58:49;;;;;;;5.63;3.90;;;;;;;;;;2063358;28;20034;-65
2024/03/20 02:00:12;;;;;;;6.55;4.35;;;;;;;;;;2063471;28;20034;-65
2024/03/20 02:01:31;;;;;;;6.65;4.22;;;;;;;;;;2091663;28;20029;-65
2024/03/20 02:02:54;;;;;;;5.05;3.88;;;;;;;;;;2075412;28;20038;-65
2024/03/20 02:04:14;;;;;;;7.13;3.88;;;;;;;;;;2060209;28;20491;-65
2024/03/20 02:05:33;;;;;;;6.50;3.72;;;;;;;;;;2063259;28;20031;-65
2024/03/20 02:06:52;;;;;;;6.63;3.90;;;;;;;;;;2063550;28;20110;-65
2024/03/20 02:08:11;;;;;;;7.82;3.70;;;;;;;;;;2064300;28;20054;-65
2024/03/20 02:09:30;;;;;;;8.63;3.80;;;;;;;;;;2063492;28;20054;-65
2024/03/20 02:10:49;;;;;;;4.90;3.55;;;;;;;;;;2062741;28;20034;-65
2024/03/20 02:12:08;;;;;;;5.60;4.22;;;;;;;;;;2063937;28;20396;-65
2024/03/20 02:13:27;;;;;;;9.38;4.35;;;;;;;;;;2063871;28;20062;-65
2024/03/20 02:14:46;;;;;;;5.72;4.00;;;;;;;;;;2063215;28;20049;-65
2024/03/20 02:16:05;;;;;;;6.47;4.00;;;;;;;;;;2063864;28;20032;-65
2024/03/20 02:17:24;;;;;;;7.57;3.72;;;;;;;;;;2063380;28;20491;-65
2024/03/20 02:18:44;;;;;;;8.65;4.35;;;;;;;;;;2064130;28;20034;-65
2024/03/20 02:20:04;;;;;;;7.90;4.60;;;;;;;;;;2063183;28;20030;-65
2024/03/20 02:21:23;;;;;;;5.43;4.15;;;;;;;;;;2063004;28;20062;-67
2024/03/20 02:22:43;;;;;;;4.60;4.18;;;;;;;;;;2064783;28;20799;-65
2024/03/20 02:24:05;;;;;;;7.65;4.22;;;;;;;;;;2064355;28;20034;-66
2024/03/20 02:25:29;;;;;;;5.00;4.40;;;;;;;;;;2064149;28;20479;-65
2024/03/20 02:26:47;;;;;;;5.60;3.80;;;;;;;;;;2061986;28;20038;-65
2024/03/20 02:28:07;;;;;;;4.18;3.70;;;;;;;;;;2063200;28;20499;-65
2024/03/20 02:29:26;;;;;;;7.55;3.80;;;;;;;;;;2063185;28;20030;-65
2024/03/20 02:30:45;;;;;;;5.95;4.00;;;;;;;;;;2063711;28;20026;-65
2024/03/20 02:32:04;;;;;;;5.35;4.20;;;;;;;;;;2063748;28;20034;-67
2024/03/20 02:33:23;;;;;;;4.43;3.75;;;;;;;;;;2101714;28;20024;-65
2024/03/20 02:34:43;;;;;;;7.47;4.05;;;;;;;;;;2076491;28;20563;-65
2024/03/20 02:36:02;;;;;;;4.80;4.40;;;;;;;;;;2063403;28;20043;-65
2024/03/20 02:37:21;;;;;;;6.75;4.00;;;;;;;;;;2063836;28;20105;-65
2024/03/20 02:38:41;;;;;;;4.65;4.22;;;;;;;;;;2063897;28;20030;-65
2024/03/20 02:40:01;;;;;;;10.13;4.25;;;;;;;;;;2096559;28;20497;-65
2024/03/20 02:41:20;;;;;;;8.38;4.13;;;;;;;;;;2076679;28;20038;-65
2024/03/20 02:42:39;;;;;;;5.00;4.05;;;;;;;;;;2063495;28;20383;-65
2024/03/20 02:43:58;;;;;;;6.35;3.60;;;;;;;;;;2063528;28;20030;-65
2024/03/20 02:45:17;;;;;;;8.43;4.15;;;;;;;;;;2063406;28;20030;-65
2024/03/20 02:46:36;;;;;;;4.80;3.80;;;;;;;;;;2063547;28;20052;-65
2024/03/20 02:47:55;;;;;;;4.15;3.25;;;;;;;;;;2064049;28;20030;-65
2024/03/20 02:49:14;;;;;;;6.18;3.50;;;;;;;;;;2063023;28;20038;-65
2024/03/20 02:50:33;;;;;;;4.15;3.70;;;;;;;;;;2063566;28;20097;-67
2024/03/20 02:51:52;;;;;;;7.38;4.15;;;;;;;;;;2063808;28;20042;-65
2024/03/20 02:53:11;;;;;;;7.28;4.10;;;;;;;;;;2064098;28;20034;-65
2024/03/20 02:54:30;;;;;;;4.07;3.67;;;;;;;;;;2064061;28;20039;-66
2024/03/20 02:55:49;;;;;;;5.45;3.72;;;;;;;;;;2062438;28;20236;-66
2024/03/20 02:57:08;;;;;;;3.92;3.50;;;;;;;;;;2063201;28;20026;-66
2024/03/20 02:58:27;;;;;;;4.32;3.25;;;;;;;;;;2064122;28;20034;-66
2024/03/20 02:59:46;;;;;;;5.65;3.90;;;;;;;;;;2065363;28;20125;-66
2024/03/20 03:01:05;;;;;;;4.43;3.95;;;;;;;;;;2063073;28;20058;-66
2024/03/20 03:02:24;;;;;;;4.47;4.03;;;;;;;;;;2062702;28;20030;-66
2024/03/20 03:03:45;;;;;;;4.53;4.05;;;;;;;;;;2064097;28;20023;-66
2024/03/20 03:05:04;;;;;;;7.60;4.53;;;;;;;;;;2105045;28;20020;-66
2024/03/20 03:06:23;;;;;;;6.00;3.90;;;;;;;;;;2078406;28;20026;-66
2024/03/20 03:07:42;;;;;;;5.72;4.10;;;;;;;;;;2062801;28;20122;-66
2024/03/20 03:09:00;;;;;;;6.63;4.57;;;;;;;;;;2064601;28;20501;-66
2024/03/20 03:10:21;;;;;;;7.20;4.20;;;;;;;;;;2063730;28;20070;-66
2024/03/20 03:11:41;;;;;;;5.22;4.05;;;;;;;;;;2064385;28;20035;-66
2024/03/20 03:13:00;;;;;;;6.75;3.85;;;;;;;;;;2062975;28;20030;-66
2024/03/20 03:14:19;;;;;;;6.68;4.20;;;;;;;;;;2064549;28;20029;-66
2024/03/20 03:15:38;;;;;;;4.15;3.78;;;;;;;;;;2063855;28;20488;-66
2024/03/20 03:16:57;;;;;;;5.13;4.43;;;;;;;;;;2064963;28;20475;-66
2024/03/20 03:18:16;;;;;;;4.60;4.10;;;;;;;;;;2062016;28;20387;-66
2024/03/20 03:19:35;;;;;;;4.38;3.97;;;;;;;;;;2062390;28;20399;-66
2024/03/20 03:20:54;;;;;;;5.75;4.07;;;;;;;;;;2063466;28;20035;-66
2024/03/20 03:22:13;;;;;;;6.30;4.03;;;;;;;;;;2063339;28;20026;-66
2024/03/20 03:23:32;;;;;;;4.53;3.83;;;;;;;;;;2063657;28;20031;-66
2024/03/20 03:24:51;;;;;;;5.35;3.75;;;;;;;;;;2063485;28;20019;-66
2024/03/20 03:26:10;;;;;;;5.72;3.90;;;;;;;;;;2063642;28;20105;-66
2024/03/20 03:27:29;;;;;;;5.22;3.70;;;;;;;;;;2062423;28;20030;-66
2024/03/20 03:28:48;;;;;;;4.15;3.50;;;;;;;;;;2063348;28;20034;-66
2024/03/20 03:30:10;;;;;;;4.38;3.80;;;;;;;;;;2063350;28;20034;-66
2024/03/20 03:31:32;;;;;;;4.15;3.72;;;;;;;;;;2063465;28;21010;-66
2024/03/20 03:32:51;;;;;;;4.57;3.70;;;;;;;;;;2064656;28;20062;-66
2024/03/20 03:34:10;;;;;;;6.95;3.67;;;;;;;;;;2065616;28;20038;-66
2024/03/20 03:35:29;;;;;;;5.63;3.42;;;;;;;;;;2064634;28;20060;-66
2024/03/20 03:36:48;;;;;;;4.28;2.90;;;;;;;;;;2064598;28;20082;-66
2024/03/20 03:38:07;;;;;;;5.10;3.17;;;;;;;;;;2065087;28;20487;-66
2024/03/20 03:39:26;;;;;;;6.15;3.38;;;;;;;;;;2095730;28;20147;-66
2024/03/20 03:40:45;;;;;;;6.72;3.38;;;;;;;;;;2078017;28;20039;-66
2024/03/20 03:42:07;;;;;;;3.78;3.10;;;;;;;;;;2064472;28;20050;-66
2024/03/20 03:43:26;;;;;;;3.15;2.85;;;;;;;;;;2064468;28;20019;-66
2024/03/20 03:44:45;;;;;;;3.70;3.40;;;;;;;;;;2097672;28;20017;-66
2024/03/20 03:46:04;;;;;;;4.22;3.05;;;;;;;;;;2077896;28;20508;-66
2024/03/20 03:47:23;;;;;;;4.45;2.78;;;;;;;;;;2063899;28;20034;-66
2024/03/20 03:48:42;;;;;;;3.67;3.05;;;;;;;;;;2064442;28;20023;-66
2024/03/20 03:50:01;;;;;;;4.05;2.92;;;;;;;;;;2064829;28;20044;-66
2024/03/20 03:51:20;;;;;;;5.28;3.33;;;;;;;;;;2065834;28;20034;-66
2024/03/20 03:52:39;;;;;;;4.57;3.28;;;;;;;;;;2063943;28;20038;-66
2024/03/20 03:53:58;;;;;;;3.55;2.88;;;;;;;;;;2063556;28;20392;-66
2024/03/20 03:55:17;;;;;;;3.00;2.70;;;;;;;;;;2064285;28;20574;-66
2024/03/20 03:56:36;;;;;;;4.38;2.80;;;;;;;;;;2066060;28;20042;-66
2024/03/20 03:57:55;;;;;;;3.97;2.92;;;;;;;;;;2065172;28;20168;-66
2024/03/20 03:59:14;;;;;;;6.60;2.75;;;;;;;;;;2064298;28;20034;-66
2024/03/20 04:00:33;;;;;;;3.15;2.92;;;;;;;;;;2063147;28;20117;-66
2024/03/20 04:01:52;;;;;;;3.17;2.88;;;;;;;;;;2087307;28;20498;-66
2024/03/20 04:03:11;;;;;;;7.40;3.88;;;;;;;;;;2072141;28;20491;-66
2024/03/20 04:04:29;;;;;;;3.00;2.80;;;;;;;;;;2065390;28;20066;-67
2024/03/20 04:05:48;;;;;;;4.50;2.90;;;;;;;;;;2064621;28;20030;-66
2024/03/20 04:07:07;;;;;;;2.78;2.58;;;;;;;;;;2097714;28;20101;-66
2024/03/20 04:08:26;;;;;;;6.88;2.67;;;;;;;;;;2079226;28;20491;-66
2024/03/20 04:09:46;;;;;;;3.50;2.58;;;;;;;;;;2065356;28;20019;-66
2024/03/20 04:11:05;;;;;;;3.33;2.45;;;;;;;;;;2064227;28;20030;-66
2024/03/20 04:12:24;;;;;;;4.20;2.95;;;;;;;;;;2064428;28;20487;-66
2024/03/20 04:13:43;;;;;;;2.78;2.60;;;;;;;;;;2064844;28;20058;-66
2024/03/20 04:15:02;;;;;;;3.75;2.58;;;;;;;;;;2064957;28;20031;-66
2024/03/20 04:16:21;;;;;;;3.00;2.70;;;;;;;;;;2065551;28;20034;-66
2024/03/20 04:17:40;;;;;;;3.05;2.65;;;;;;;;;;2105184;28;20017;-66
2024/03/20 04:19:00;;;;;;;5.22;2.97;;;;;;;;;;2080644;28;20047;-66
2024/03/20 04:20:19;;;;;;;3.38;2.63;;;;;;;;;;2064080;28;20018;-66
2024/03/20 04:21:38;;;;;;;3.63;2.53;;;;;;;;;;2064913;28;20034;-66
2024/03/20 04:22:57;;;;;;;3.40;3.00;;;;;;;;;;2064832;28;20031;-66
2024/03/20 04:24:16;;;;;;;5.53;2.78;;;;;;;;;;2064473;28;20034;-66
2024/03/20 04:25:34;;;;;;;3.75;2.45;;;;;;;;;;2096532;28;20037;-66
2024/03/20 04:26:54;;;;;;;4.22;3.10;;;;;;;;;;2076629;28;20036;-66
2024/03/20 04:28:13;;;;;;;6.88;3.00;;;;;;;;;;2097306;28;20044;-69
2024/03/20 04:29:32;;;;;;;4.78;2.67;;;;;;;;;;2077667;28;20457;-66
2024/03/20 04:30:51;;;;;;;4.90;2.85;;;;;;;;;;2065739;28;20479;-66
2024/03/20 04:32:10;;;;;;;5.95;3.00;;;;;;;;;;2063700;28;20038;-66
2024/03/20 04:33:30;;;;;;;5.72;3.00;;;;;;;;;;2064998;28;20030;-66
2024/03/20 04:34:49;;;;;;;4.50;2.88;;;;;;;;;;2085435;28;20030;-66
2024/03/20 04:36:08;;;;;;;4.35;2.95;;;;;;;;;;2073123;28;20031;-66
2024/03/20 04:37:27;;;;;;;9.95;2.65;;;;;;;;;;2064753;28;20061;-66
2024/03/20 04:38:46;;;;;;;4.03;3.50;;;;;;;;;;2065410;28;20395;-66
2024/03/20 04:40:08;;;;;;;3.25;2.72;;;;;;;;;;2063469;28;20026;-66
2024/03/20 04:41:27;;;;;;;4.18;2.75;;;;;;;;;;2064622;28;20030;-66
2024/03/20 04:42:46;;;;;;;6.03;3.13;;;;;;;;;;2066696;28;20035;-66
2024/03/20 04:44:05;;;;;;;6.18;3.22;;;;;;;;;;2063716;28;20554;-66
2024/03/20 04:45:24;;;;;;;5.40;3.08;;;;;;;;;;2064787;28;20030;-66
2024/03/20 04:46:43;;;;;;;2.95;2.65;;;;;;;;;;2063965;28;20395;-66
2024/03/20 04:48:02;;;;;;;6.30;3.10;;;;;;;;;;2064254;28;20487;-66
2024/03/20 04:49:21;;;;;;;4.80;3.00;;;;;;;;;;2064335;28;20041;-66
2024/03/20 04:50:40;;;;;;;3.95;3.00;;;;;;;;;;2064378;28;20038;-66
2024/03/20 04:51:59;;;;;;;3.70;2.78;;;;;;;;;;2095507;28;20025;-66
2024/03/20 04:53:19;;;;;;;5.97;3.83;;;;;;;;;;2077232;28;20030;-66
2024/03/20 04:54:38;;;;;;;6.22;3.00;;;;;;;;;;2064348;28;20406;-66
2024/03/20 04:55:57;;;;;;;4.90;3.50;;;;;;;;;;2102534;28;20040;-66
2024/03/20 04:57:16;;;;;;;4.00;3.33;;;;;;;;;;2079878;28;20042;-66
2024/03/20 04:58:35;;;;;;;8.10;3.80;;;;;;;;;;2063955;28;20026;-66
2024/03/20 04:59:54;;;;;;;5.78;3.08;;;;;;;;;;2064125;28;20031;-66
2024/03/20 05:01:13;;;;;;;8.05;3.58;;;;;;;;;;2064458;28;20586;-66
2024/03/20 05:02:32;;;;;;;4.90;3.22;;;;;;;;;;2064941;28;20040;-66
2024/03/20 05:03:51;;;;;;;10.73;3.92;;;;;;;;;;2061234;28;20027;-66
2024/03/20 05:05:10;;;;;;;5.53;3.65;;;;;;;;;;2062001;28;20030;-66
2024/03/20 05:06:29;;;;;;;4.97;3.60;;;;;;;;;;2063038;28;20026;-66
2024/03/20 05:07:48;;;;;;;5.38;3.47;;;;;;;;;;2095931;28;20425;-66
2024/03/20 05:09:07;;;;;;;6.47;3.72;;;;;;;;;;2077451;28;20038;-66
2024/03/20 05:10:26;;;;;;;6.65;3.65;;;;;;;;;;2064170;28;20030;-65
2024/03/20 05:11:45;;;;;;;5.13;4.13;;;;;;;;;;2063604;28;20057;-65
2024/03/20 05:13:04;;;;;;;5.93;3.80;;;;;;;;;;2064261;28;20390;-66
2024/03/20 05:14:23;;;;;;;4.97;4.15;;;;;;;;;;2063742;28;20038;-66
2024/03/20 05:15:42;;;;;;;6.60;4.22;;;;;;;;;;2064838;28;20026;-66
2024/03/20 05:17:01;;;;;;;5.85;3.80;;;;;;;;;;2063682;28;20543;-66
2024/03/20 05:18:20;;;;;;;6.47;3.90;;;;;;;;;;2064283;28;20117;-65
2024/03/20 05:19:39;;;;;;;7.55;4.70;;;;;;;;;;2064564;28;20038;-65
2024/03/20 05:20:58;;;;;;;7.15;4.40;;;;;;;;;;2063395;28;20030;-65
2024/03/20 05:22:16;;;;;;;4.35;3.80;;;;;;;;;;2063939;28;20027;-65
2024/03/20 05:23:35;;;;;;;6.22;4.43;;;;;;;;;;2063801;28;20503;-66
2024/03/20 05:24:55;;;;;;;7.75;4.10;;;;;;;;;;2063678;28;20527;-66
2024/03/20 05:26:14;;;;;;;5.38;4.88;;;;;;;;;;2063932;28;20027;-66
2024/03/20 05:27:33;;;;;;;6.25;4.47;;;;;;;;;;2096939;28;20032;-66
2024/03/20 05:28:51;;;;;;;6.70;4.18;;;;;;;;;;2076554;28;20484;-65
2024/03/20 05:30:11;;;;;;;5.90;5.00;;;;;;;;;;2062935;28;20479;-66
2024/03/20 05:31:30;;;;;;;7.82;4.85;;;;;;;;;;2063748;28;20039;-66
2024/03/20 05:32:49;;;;;;;12.38;5.05;;;;;;;;;;2065063;28;20031;-65
2024/03/20 05:34:10;;;;;;;7.90;4.78;;;;;;;;;;2065341;28;20034;-65
2024/03/20 05:35:29;;;;;;;8.82;4.55;;;;;;;;;;2064031;28;20026;-65
2024/03/20 05:36:48;;;;;;;5.15;4.65;;;;;;;;;;2064374;28;20035;-66
2024/03/20 05:38:07;;;;;;;9.43;6.70;;;;;;;;;;2063084;28;20026;-66
2024/03/20 05:39:26;;;;;;;13.35;7.95;;;;;;;;;;2064027;28;20027;-66
2024/03/20 05:40:45;;;;;;;16.85;9.20;;;;;;;;;;2064303;28;20038;-66
2024/03/20 05:42:04;;;;;;;16.17;10.18;;;;;;;;;;2063678;28;20026;-66
2024/03/20 05:43:23;;;;;;;16.70;10.40;;;;;;;;;;2063856;28;20053;-66
2024/03/20 05:44:43;;;;;;;17.17;10.00;;;;;;;;;;2063881;28;20487;-66
2024/03/20 05:46:03;;;;;;;17.42;10.65;;;;;;;;;;2063607;28;20487;-69
2024/03/20 05:47:22;;;;;;;14.68;9.90;;;;;;;;;;2064145;28;20030;-66
2024/03/20 05:48:42;;;;;;;13.95;7.85;;;;;;;;;;2064094;28;20019;-66
2024/03/20 05:50:01;;;;;;;15.50;10.18;;;;;;;;;;2063207;28;20035;-70
2024/03/20 05:51:20;;;;;;;19.25;10.48;;;;;;;;;;2065583;28;20030;-66
2024/03/20 05:52:39;;;;;;;20.92;11.73;;;;;;;;;;2097229;28;20037;-66
2024/03/20 05:53:58;;;;;;;21.17;13.23;;;;;;;;;;2076483;28;20038;-66
2024/03/20 05:55:19;;;;;;;22.58;11.60;;;;;;;;;;2063971;28;20499;-66
2024/03/20 05:56:38;;;;;;;21.15;11.63;;;;;;;;;;2063366;28;20034;-66
2024/03/20 05:57:56;;;;;;;16.17;9.20;;;;;;;;;;2063667;28;20399;-66
2024/03/20 05:59:16;;;;;;;9.13;7.50;;;;;;;;;;2063732;28;20035;-66
2024/03/20 06:00:35;;;;;;;14.30;7.28;;;;;;;;;;2062684;28;20031;-66
2024/03/20 06:01:54;;;;;;;12.55;7.82;;;;;;;;;;2063602;28;20030;-66
2024/03/20 06:03:12;;;;;;;14.27;8.93;;;;;;;;;;2064353;28;20030;-66
2024/03/20 06:04:33;;;;;;;15.38;8.02;;;;;;;;;;2064323;28;20109;-67
2024/03/20 06:05:52;;;;;;;15.15;8.55;;;;;;;;;;2063548;28;20022;-66
2024/03/20 06:07:11;;;;;;;8.55;6.00;;;;;;;;;;2063456;28;20026;-66
2024/03/20 06:08:30;;;;;;;7.05;5.68;;;;;;;;;;2063761;28;20109;-66
2024/03/20 06:09:49;;;;;;;8.13;5.35;;;;;;;;;;2063767;28;20038;-66
2024/03/20 06:11:08;;;;;;;8.32;5.07;;;;;;;;;;2064026;28;20030;-66
2024/03/20 06:12:27;;;;;;;8.75;6.60;;;;;;;;;;2063177;28;20019;-64
2024/03/20 06:13:46;;;;;;;19.02;8.85;;;;;;;;;;2063795;28;20027;-65
2024/03/20 06:15:07;;;;;;;24.90;13.77;;;;;;;;;;2064213;28;20026;-65
2024/03/20 06:16:26;;;;;;;18.05;11.25;;;;;;;;;;2063432;28;20023;-65
2024/03/20 06:17:45;;;;;;;19.67;10.07;;;;;;;;;;2063942;28;20046;-65
2024/03/20 06:19:04;;;;;;;21.08;10.27;;;;;;;;;;2064288;28;20026;-65
2024/03/20 06:20:23;;;;;;;12.68;8.25;;;;;;;;;;2063325;28;20034;-65
2024/03/20 06:21:42;;;;;;;15.85;8.55;;;;;;;;;;2063558;28;20023;-65
2024/03/20 06:23:01;;;;;;;12.60;7.68;;;;;;;;;;2063828;28;20027;-65
2024/03/20 06:24:20;;;;;;;15.30;7.43;;;;;;;;;;2063466;28;20030;-65
2024/03/20 06:25:39;;;;;;;11.90;6.88;;;;;;;;;;2063288;28;20022;-65
2024/03/20 06:26:58;;;;;;;8.50;6.85;;;;;;;;;;2064647;28;20026;-65
2024/03/20 06:28:18;;;;;;;14.23;6.20;;;;;;;;;;2063258;28;20026;-65
2024/03/20 06:29:37;;;;;;;16.15;7.88;;;;;;;;;;2104511;28;20028;-65
2024/03/20 06:30:57;;;;;;;14.05;8.38;;;;;;;;;;2079442;28;20034;-65
2024/03/20 06:32:17;;;;;;;11.23;7.63;;;;;;;;;;2063785;28;20023;-65
2024/03/20 06:33:36;;;;;;;19.60;8.57;;;;;;;;;;2064145;28;20026;-65
2024/03/20 06:34:56;;;;;;;12.05;9.18;;;;;;;;;;2063982;28;20966;-65
2024/03/20 06:36:15;;;;;;;16.45;10.52;;;;;;;;;;2063513;28;20105;-65
2024/03/20 06:37:34;;;;;;;14.25;9.20;;;;;;;;;;2063365;28;20410;-65
2024/03/20 06:38:53;;;;;;;12.57;7.85;;;;;;;;;;2063715;28;20027;-65
2024/03/20 06:40:12;;;;;;;10.50;7.63;;;;;;;;;;2062795;28;20034;-65
2024/03/20 06:41:31;;;;;;;8.98;7.20;;;;;;;;;;2104161;28;20028;-66
2024/03/20 06:42:50;;;;;;;8.50;6.70;;;;;;;;;;2080079;28;20506;-65
2024/03/20 06:44:09;;;;;;;6.95;6.25;;;;;;;;;;2063109;28;20034;-66
2024/03/20 06:45:33;;;;;;;8.05;5.85;;;;;;;;;;2104252;28;20016;-65
2024/03/20 06:46:52;;;;;;;8.32;6.18;;;;;;;;;;2076517;28;20464;-65
2024/03/20 06:48:12;;;;;;;7.53;6.38;;;;;;;;;;2063452;28;20034;-65
2024/03/20 06:49:33;;;;;;;9.80;5.85;;;;;;;;;;2063140;28;20027;-66
2024/03/20 06:50:52;;;;;;;12.80;6.55;;;;;;;;;;2064125;28;20027;-65
2024/03/20 06:52:19;;;;;;;8.77;7.03;;;;;;;;;;2104772;28;20028;-65
2024/03/20 06:53:38;;;;;;;8.23;6.53;;;;;;;;;;2074504;28;20442;-65
2024/03/20 06:54:58;;;;;;;9.75;6.78;;;;;;;;;;2064091;28;20046;-65
2024/03/20 06:56:18;;;;;;;10.35;6.45;;;;;;;;;;2095067;28;20121;-66
2024/03/20 06:57:37;;;;;;;8.32;6.60;;;;;;;;;;2091770;28;20024;-66
2024/03/20 06:58:56;;;;;;;9.77;6.82;;;;;;;;;;2076053;28;20707;-65
2024/03/20 07:00:17;;;;;;;9.32;6.50;;;;;;;;;;2062977;28;20495;-66
2024/03/20 07:01:36;;;;;;;7.30;6.43;;;;;;;;;;2063444;28;20038;-65
2024/03/20 07:02:58;;;;;;;8.65;7.03;;;;;;;;;;2063034;28;20101;-65
2024/03/20 07:04:18;;;;;;;8.60;6.70;;;;;;;;;;2063796;28;20018;-67
2024/03/20 07:05:36;;;;;;;7.65;6.20;;;;;;;;;;2063732;28;20035;-65
2024/03/20 07:06:55;;;;;;;8.20;7.07;;;;;;;;;;2064725;28;20030;-65
2024/03/20 07:08:14;;;;;;;9.02;6.75;;;;;;;;;;2067874;28;20043;-65
2024/03/20 07:09:34;;;;;;;9.57;7.25;;;;;;;;;;2064835;28;20050;-65
2024/03/20 07:10:53;;;;;;;10.55;7.80;;;;;;;;;;2064306;28;20030;-65
2024/03/20 07:12:13;;;;;;;10.23;7.43;;;;;;;;;;2064855;28;20031;-65
2024/03/20 07:13:32;;;;;;;8.65;6.10;;;;;;;;;;2096944;28;20115;-65
2024/03/20 07:14:51;;;;;;;8.50;6.68;;;;;;;;;;2077140;28;20034;-65
2024/03/20 07:16:10;;;;;;;6.90;6.20;;;;;;;;;;2064914;28;20126;-65
2024/03/20 07:17:29;;;;;;;7.38;5.43;;;;;;;;;;2064207;28;20026;-65
2024/03/20 07:18:48;;;;;;;6.80;5.90;;;;;;;;;;2064813;28;20495;-65
2024/03/20 07:20:11;;;;;;;7.88;6.28;;;;;;;;;;2065181;28;20030;-65
2024/03/20 07:21:30;;;;;;;9.02;6.22;;;;;;;;;;2093926;28;20041;-65
2024/03/20 07:22:48;;;;;;;6.75;6.07;;;;;;;;;;2075829;28;20416;-65
2024/03/20 07:24:08;;;;;;;9.55;6.18;;;;;;;;;;2064672;28;20121;-65
2024/03/20 07:25:27;;;;;;;9.18;5.75;;;;;;;;;;2064503;28;20034;-66
2024/03/20 07:26:46;;;;;;;6.28;5.63;;;;;;;;;;2064595;28;20058;-65
2024/03/20 07:28:05;;;;;;;7.07;5.72;;;;;;;;;;2064586;28;20476;-66
2024/03/20 07:29:27;;;;;;;6.63;5.70;;;;;;;;;;2105499;28;20036;-65
2024/03/20 07:30:46;;;;;;;7.82;6.00;;;;;;;;;;2078903;28;20557;-65
2024/03/20 07:32:07;;;;;;;7.35;6.03;;;;;;;;;;2065394;28;20129;-66
2024/03/20 07:33:26;;;;;;;6.22;5.70;;;;;;;;;;2064061;28;20027;-66
2024/03/20 07:34:45;;;;;;;6.60;5.60;;;;;;;;;;2064531;28;20544;-65
2024/03/20 07:36:04;;;;;;;7.22;6.20;;;;;;;;;;2064244;28;20125;-67
2024/03/20 07:37:25;;;;;;;6.10;5.50;;;;;;;;;;2064847;28;20034;-66
2024/03/20 07:38:43;;;;;;;6.93;5.95;;;;;;;;;;2064644;28;20030;-66
2024/03/20 07:40:04;;;;;;;8.65;6.57;;;;;;;;;;2064286;28;20039;-65
2024/03/20 07:41:24;;;;;;;6.47;5.97;;;;;;;;;;2064004;28;20026;-65
2024/03/20 07:42:44;;;;;;;5.85;5.35;;;;;;;;;;2064796;28;20026;-65
2024/03/20 07:44:03;;;;;;;6.20;5.60;;;;;;;;;;2064394;28;20026;-66
2024/03/20 07:45:22;;;;;;;8.18;6.28;;;;;;;;;;2097837;28;20033;-65
2024/03/20 07:46:41;;;;;;;7.18;6.15;;;;;;;;;;2077829;28;20094;-66
2024/03/20 07:48:00;;;;;;;6.07;5.43;;;;;;;;;;2097198;28;20029;-66
2024/03/20 07:49:19;;;;;;;6.38;5.78;;;;;;;;;;2077226;28;20105;-66
2024/03/20 07:50:39;;;;;;;6.75;5.95;;;;;;;;;;2064152;28;20030;-66
2024/03/20 07:51:58;;;;;;;6.13;5.50;;;;;;;;;;2064266;28;20031;-66
2024/03/20 07:53:17;;;;;;;8.32;6.07;;;;;;;;;;2064964;28;20029;-66